Data for 09/09/2009

Time Sea-Level Adjusted Pressure Absolute Pressure Temperature Relative Humidity Dew Point   
(mb) (inHg) (mb) (inHg) (C) (F) (%) (C) (F)
00:05 1020 30.12 850 25.1 9.5 49 30 -7.1 19.3
00:10 1020 30.12 850 25.1 9.5 49.1 30 -7.1 19.2
00:15 1020 30.12 850 25.1 9.5 49.2 30 -7.2 19.1
00:20 1020 30.12 850 25.1 9.6 49.3 30 -7 19.4
00:25 1021 30.15 850 25.1 9.7 49.4 29 -7.5 18.5
00:30 1021 30.15 850 25.1 10.2 50.4 30 -6.7 20
00:35 1021 30.15 850 25.1 9.8 49.7 29 -7.5 18.5
00:40 1021 30.15 850 25.1 9.9 49.9 30 -6.8 19.7
00:45 1021 30.15 850 25.1 9.6 49.3 32 -6.3 20.6
00:50 1021 30.15 850 25.1 9.2 48.5 34 -5.9 21.4
00:55 1021 30.15 850 25.1 8.8 47.8 35 -5.9 21.4
01:00 1021 30.15 850 25.1 8.6 47.5 35 -6 21.1
01:05 1021 30.15 850 25.1 9 48.2 33 -6.6 20.2
01:10 1021 30.15 850 25.1 9.1 48.4 33 -6.4 20.4
01:15 1021 30.15 850 25.1 8.9 48.1 32 -6.7 19.9
01:20 1021 30.15 850 25.1 8.9 48 31 -7.4 18.7
01:25 1021 30.15 850 25.1 9.1 48.4 32 -6.9 19.6
01:30 1021 30.15 850 25.1 8.8 47.8 33 -6.7 19.9
01:35 1021 30.15 850 25.1 8.6 47.5 31 -7.4 18.7
01:40 1021 30.15 850 25.1 8.8 47.9 32 -7 19.4
01:45 1021 30.15 850 25.1 8.8 47.8 32 -7 19.4
01:50 1021 30.15 850 25.1 8.7 47.7 33 -6.7 20
01:55 1021 30.15 850 25.1 8.6 47.5 32 -7 19.4
02:00 1021 30.15 850 25.1 8.6 47.5 32 -7.1 19.1
02:05 1021 30.15 850 25.1 8.6 47.5 33 -6.8 19.8
02:10 1021 30.15 850 25.1 8.5 47.2 30 -8.2 17.3
02:15 1021 30.15 850 25.1 8.6 47.5 33 -6.8 19.7
02:20 1021 30.15 850 25.1 8.2 46.7 34 -6.7 19.9
02:25 1021 30.15 850 25.1 8 46.4 34 -7 19.3
02:30 1021 30.15 850 25.1 8.1 46.6 34 -6.7 19.9
02:35 1021 30.15 850 25.1 7.9 46.1 35 -6.7 19.9
02:40 1021 30.15 850 25.1 7.6 45.8 36 -6.6 20.1
02:45 1021 30.15 850 25.1 7.6 45.6 35 -7.1 19.2
02:50 1021 30.15 850 25.1 7.5 45.5 36 -6.7 19.9
02:55 1021 30.15 850 25.1 7.6 45.7 35 -7 19.5
03:00 1021 30.15 850 25.1 7.7 45.9 35 -6.8 19.7
03:05 1021 30.15 850 25.1 7.7 45.8 36 -6.4 20.4
03:10 1021 30.15 850 25.1 7.6 45.7 35 -6.8 19.8
03:15 1021 30.15 850 25.1 7.8 46.1 34 -7 19.4
03:20 1021 30.15 850 25.1 7.8 46.1 34 -7 19.3
03:25 1021 30.15 850 25.1 7.8 46 36 -6.5 20.3
03:30 1021 30.15 850 25.1 7.6 45.6 35 -6.9 19.6
03:35 1021 30.15 850 25.1 7.6 45.7 35 -6.9 19.6
03:40 1021 30.15 850 25.1 7.7 45.8 35 -6.9 19.5
03:45 1021 30.15 850 25.1 7.9 46.1 33 -7.4 18.6
03:50 1021 30.15 850 25.1 8.3 46.9 33 -7.1 19.1
03:55 1021 30.15 850 25.1 8.4 47.1 33 -6.9 19.6
04:00 1021 30.15 850 25.1 8.3 46.9 32 -7.5 18.6
04:05 1021 30.15 850 25.1 8.6 47.4 32 -7.3 18.9
04:10 1021 30.15 850 25.1 8.8 47.9 32 -7.1 19.3
04:15 1021 30.15 850 25.1 8.4 47.1 33 -7 19.4
04:20 1021 30.15 850 25.1 7.9 46.3 35 -6.7 20
04:25 1021 30.15 850 25.1 7.9 46.1 38 -5.7 21.7
04:30 1021 30.15 850 25.1 7.9 46.2 35 -6.8 19.8
04:35 1021 30.15 850 25.1 8.2 46.8 32 -7.7 18.1
04:40 1021 30.15 850 25.1 8.9 47.9 30 -7.6 18.3
04:45 1021 30.15 850 25.1 9 48.2 33 -6.6 20.2
04:50 1021 30.15 850 25.1 8.6 47.4 35 -6 21.2
04:55 1021 30.15 850 25.1 7.6 45.8 36 -6.5 20.3
05:00 1021 30.15 850 25.1 7.1 44.7 44 -4.5 23.9
05:05 1021 30.15 850 25.1 6.3 43.3 44 -4.9 23.2
05:10 1021 30.15 850 25.1 6.6 44 39 -6.4 20.4
05:15 1021 30.15 850 25.1 7.4 45.4 38 -5.9 21.4
05:20 1021 30.15 850 25.1 7.3 45.1 39 -5.9 21.5
05:25 1021 30.15 850 25.1 7.3 45.2 38 -6.2 20.8
05:30 1021 30.15 850 25.1 7.5 45.5 35 -6.8 19.7
05:35 1021 30.15 850 25.1 7.4 45.4 38 -6 21.1
05:40 1021 30.15 850 25.1 7.2 44.9 38 -6.4 20.6
05:45 1021 30.15 850 25.1 7 44.5 40 -5.8 21.6
05:50 1021 30.15 850 25.1 6.8 44.3 37 -7 19.5
05:55 1021 30.15 850 25.1 7.4 45.3 36 -6.7 20
06:00 1021 30.15 850 25.1 7.3 45.2 37 -6.3 20.7
06:05 1021 30.15 850 25.1 7.2 44.9 39 -5.8 21.6
06:10 1021 30.15 850 25.1 6.8 44.2 44 -4.6 23.7
06:15 1021 30.15 850 25.1 6.2 43.2 45 -4.8 23.4
06:20 1021 30.15 850 25.1 6.1 43 44 -5.3 22.5
06:25 1021 30.15 850 25.1 6.1 43 41 -6.2 20.8
06:30 1021 30.15 850 25.1 6.7 44 37 -6.8 19.7
06:35 1021 30.15 850 25.1 7.5 45.5 33 -7.6 18.3
06:40 1021 30.15 850 25.1 7.9 46.3 33 -7.2 19
06:45 1021 30.15 850 25.1 7.9 46.2 35 -6.7 19.9
06:50 1021 30.15 850 25.1 7.9 46.2 36 -6.1 21
06:55 1021 30.15 851 25.13 7.6 45.6 39 -5.4 22.2
07:00 1021 30.15 851 25.13 7 44.7 43 -4.6 23.6
07:05 1021 30.15 851 25.13 6.7 44.1 37 -7 19.4
07:10 1022 30.18 851 25.13 7.2 45 41 -5.2 22.7
07:15 1022 30.18 851 25.13 6.6 43.9 42 -5.3 22.4
07:20 1022 30.18 851 25.13 6.5 43.7 37 -7 19.5
07:25 1022 30.18 851 25.13 7.5 45.4 33 -7.6 18.3
07:30 1022 30.18 851 25.13 8.4 47 31 -7.6 18.3
07:35 1022 30.18 851 25.13 8.5 47.3 33 -6.9 19.6
07:40 1022 30.18 851 25.13 8.4 47.1 39 -4.9 23.2
07:45 1022 30.18 851 25.13 7.8 46.1 37 -5.9 21.4
07:50 1022 30.18 851 25.13 8.1 46.5 37 -5.7 21.8
07:55 1022 30.18 851 25.13 8.1 46.5 41 -4.3 24.2
08:00 1022 30.18 851 25.13 8.3 47 39 -4.7 23.6
08:05 1022 30.18 851 25.13 8.1 46.7 44 -3.4 25.9
08:10 1022 30.18 851 25.13 7.9 46.1 46 -3 26.5
08:15 1022 30.18 851 25.13 7.8 46.1 47 -2.9 26.8
08:20 1022 30.18 851 25.13 8 46.4 46 -2.9 26.9
08:25 1022 30.18 851 25.13 8.2 46.7 47 -2.6 27.4
08:30 1022 30.18 851 25.13 8.7 47.7 43 -3 26.6
08:35 1022 30.18 851 25.13 9.1 48.4 42 -3.1 26.3
08:40 1022 30.18 851 25.13 9.4 48.9 40 -3.5 25.8
08:45 1022 30.18 851 25.13 9.9 49.7 41 -2.9 26.8
08:50 1022 30.18 851 25.13 10.3 50.6 42 -2.1 28.2
08:55 1022 30.18 851 25.13 10.3 50.6 38 -3.4 25.8
09:00 1022 30.18 851 25.13 10.7 51.2 38 -3.1 26.4
09:05 1022 30.18 851 25.13 11.5 52.6 35 -3.6 25.5
09:10 1022 30.18 851 25.13 12.2 54 32 -3.8 25.2
09:15 1022 30.18 851 25.13 12.6 54.7 33 -3.1 26.4
09:20 1022 30.18 851 25.13 13 55.4 30 -4 24.9
09:25 1022 30.18 851 25.13 13.4 56.1 26 -5.7 21.7
09:30 1022 30.18 851 25.13 14.2 57.6 25 -5.6 22
09:35 1022 30.18 851 25.13 14.7 58.4 25 -5.2 22.6
09:40 1022 30.18 851 25.13 14.9 58.7 24 -5.6 21.9
09:45 1022 30.18 851 25.13 15.4 59.7 24 -5.2 22.6
09:50 1022 30.18 851 25.13 15.4 59.6 24 -5.1 22.8
09:55 1022 30.18 851 25.13 15.3 59.5 24 -5.3 22.5
10:00 1022 30.18 851 25.13 15.8 60.4 23 -5.2 22.7
10:05 1022 30.18 851 25.13 16 60.9 23 -5.1 22.8
10:10 1022 30.18 851 25.13 16.4 61.6 24 -4.1 24.7
10:15 1022 30.18 851 25.13 15.8 60.5 23 -5.4 22.3
10:20 1022 30.18 851 25.13 16.6 61.8 21 -5.6 22
10:25 1022 30.18 851 25.13 16.5 61.7 23 -4.5 24
10:30 1022 30.18 851 25.13 16 60.9 22 -5.3 22.4
10:35 1022 30.18 851 25.13 16.5 61.7 24 -3.8 25.2
10:40 1022 30.18 851 25.13 16.7 62.1 21 -5.4 22.3
10:45 1022 30.18 851 25.13 17.5 63.4 20 -5.4 22.2
10:50 1022 30.18 851 25.13 17.7 63.8 20 -5.2 22.6
10:55 1022 30.18 851 25.13 17.9 64.1 20 -5.5 22
11:00 1022 30.18 851 25.13 18.3 64.9 19 -5.5 22.1
11:05 1022 30.18 851 25.13 18 64.3 20 -5.2 22.7
11:10 1022 30.18 851 25.13 17.7 63.9 20 -5.7 21.8
11:15 1022 30.18 851 25.13 18.3 64.9 19 -5.6 21.9
11:20 1022 30.18 851 25.13 18.1 64.7 20 -5.1 22.8
11:25 1022 30.18 851 25.13 18.4 65.1 20 -4.8 23.4
11:30 1022 30.18 851 25.13 19.1 66.3 20 -4.4 24.1
11:35 1022 30.18 851 25.13 19.4 66.9 19 -4.4 24
11:40 1022 30.18 851 25.13 19.4 66.9 19 -4.6 23.7
11:45 1022 30.18 851 25.13 19.4 67 19 -4.7 23.5
11:50 1022 30.18 851 25.13 19.4 66.9 19 -4.4 24.1
11:55 1022 30.18 851 25.13 19.8 67.6 19 -4.7 23.5
12:00 1022 30.18 851 25.13 19.9 67.7 19 -4.6 23.7
12:05 1022 30.18 851 25.13 20.1 68.2 18 -5 23
12:10 1021 30.15 851 25.13 19 66.2 17 -6.5 20.3
12:15 1021 30.15 851 25.13 19.3 66.8 17 -5.9 21.3
12:20 1021 30.15 851 25.13 20.3 68.6 15 -7 19.3
12:25 1021 30.15 851 25.13 20.9 69.6 15 -6.7 20
12:30 1021 30.15 851 25.13 21.6 70.8 14 -7.1 19.2
12:35 1021 30.15 850 25.1 20.9 69.6 15 -6.5 20.3
12:40 1021 30.15 850 25.1 21 69.8 14 -6.9 19.5
12:45 1021 30.15 850 25.1 20.9 69.6 14 -7.1 19.1
12:50 1021 30.15 850 25.1 20.1 68.2 16 -6.1 21
12:55 1021 30.15 850 25.1 20 68 15 -7.1 19.2
13:00 1021 30.15 850 25.1 20.5 69 15 -6.8 19.8
13:05 1021 30.15 850 25.1 22.2 71.9 14 -6.7 19.9
13:10 1021 30.15 850 25.1 22.8 73 14 -5.9 21.3
13:15 1021 30.15 850 25.1 23.2 73.7 13 -6.3 20.7
13:20 1021 30.15 850 25.1 22.7 72.8 13 -6.6 20
13:25 1021 30.15 850 25.1 22.7 72.9 12 -8.3 17
13:30 1021 30.15 850 25.1 22.1 71.8 13 -7.1 19.1
13:35 1021 30.15 850 25.1 21.7 71.1 13 -8.2 17.3
13:40 1021 30.15 850 25.1 22.9 73.2 12 -8 17.6
13:45 1021 30.15 850 25.1 22.5 72.4 12 -7.7 18.1
13:50 1021 30.15 850 25.1 23.7 74.7 12 -7.5 18.5
13:55 1021 30.15 850 25.1 24.1 75.4 12 -6.3 20.6
14:00 1021 30.15 850 25.1 23.8 74.8 12 -7.1 19.2
14:05 1021 30.15 850 25.1 23.8 74.9 12 -6.6 20.1
14:10 1021 30.15 850 25.1 24.6 76.2 13 -5.9 21.3
14:15 1021 30.15 850 25.1 25.1 77.1 12 -6 21.1
14:20 1021 30.15 850 25.1 25.2 77.4 12 -6.2 20.9
14:25 1021 30.15 850 25.1 25.5 77.8 12 -5.9 21.4
14:30 1021 30.15 850 25.1 25.1 77.1 12 -6.2 20.8
14:35 1020 30.12 850 25.1 25.1 77.2 12 -6 21.3
14:40 1020 30.12 850 25.1 25.8 78.5 11 -6.4 20.4
14:45 1020 30.12 850 25.1 25.6 78 12 -6.2 20.8
14:50 1020 30.12 850 25.1 24.6 76.2 12 -6.2 20.8
14:55 1020 30.12 850 25.1 23.9 74.9 13 -6.1 21.1
15:00 1020 30.12 850 25.1 25 77 11 -7.1 19.3
15:05 1020 30.12 850 25.1 26.1 79 11 -5.9 21.3
15:10 1020 30.12 850 25.1 26.3 79.3 11 -6.1 21.1
15:15 1020 30.12 849 25.07 26 78.8 11 -6.4 20.5
15:20 1020 30.12 849 25.07 25.1 77.1 12 -5.8 21.6
15:25 1020 30.12 849 25.07 25.4 77.7 12 -6.1 21.1
15:30 1020 30.12 849 25.07 25.5 77.9 12 -5.8 21.5
15:35 1020 30.12 849 25.07 26 78.7 12 -4.9 23.1
15:40 1020 30.12 849 25.07 25.4 77.7 13 -5.1 22.9
15:45 1020 30.12 849 25.07 25.7 78.2 13 -4.5 24
15:50 1020 30.12 849 25.07 25 76.9 13 -4.7 23.6
15:55 1020 30.12 849 25.07 24.8 76.6 14 -4.7 23.6
16:00 1020 30.12 849 25.07 25 77 12 -5.9 21.4
16:05 1020 30.12 849 25.07 24.8 76.7 12 -5.9 21.4
16:10 1020 30.12 849 25.07 25.4 77.7 12 -5.6 21.9
16:15 1020 30.12 849 25.07 25.5 77.8 13 -5.1 22.8
16:20 1020 30.12 850 25.1 25 76.9 12 -6.1 21.1
16:25 1020 30.12 850 25.1 24.4 76 12 -6.4 20.5
16:30 1020 30.12 850 25.1 24.6 76.3 13 -5.1 22.8
16:35 1020 30.12 850 25.1 25.4 77.7 12 -5.8 21.5
16:40 1020 30.12 850 25.1 25.3 77.6 12 -6.1 21
16:45 1020 30.12 850 25.1 25.5 77.8 11 -6.5 20.4
16:50 1020 30.12 850 25.1 25 76.9 12 -6.1 21
16:55 1020 30.12 850 25.1 25.5 78 11 -6.5 20.2
17:00 1020 30.12 850 25.1 24.9 76.8 12 -6.7 19.9
17:05 1020 30.12 850 25.1 25.7 78.3 12 -5.7 21.8
17:10 1020 30.12 850 25.1 26 78.7 12 -5.6 21.9
17:15 1020 30.12 850 25.1 25.9 78.6 12 -5.2 22.7
17:20 1020 30.12 850 25.1 25.5 78 11 -6.7 20
17:25 1020 30.12 850 25.1 25.2 77.3 12 -5.7 21.7
17:30 1020 30.12 850 25.1 25.4 77.7 12 -6 21.2
17:35 1020 30.12 850 25.1 25.2 77.4 13 -5.2 22.6
17:40 1020 30.12 850 25.1 24.9 76.8 13 -5.5 22.1
17:45 1020 30.12 850 25.1 25.1 77.3 12 -6.1 21.1
17:50 1020 30.12 850 25.1 25.3 77.5 12 -5.5 22.2
17:55 1020 30.12 850 25.1 24.8 76.6 13 -5.5 22.1
18:00 1020 30.12 850 25.1 24.8 76.6 12 -6.8 19.7
18:05 1021 30.15 850 25.1 24.5 76.1 12 -6.3 20.7
18:10 1021 30.15 850 25.1 25 77.1 12 -5.6 21.9
18:15 1020 30.12 850 25.1 25.3 77.6 12 -5.5 22.1
18:20 1020 30.12 850 25.1 24.8 76.7 12 -6 21.2
18:25 1020 30.12 850 25.1 24.6 76.2 14 -4.7 23.5
18:30 1020 30.12 850 25.1 24.5 76 13 -5.5 22
18:35 1020 30.12 850 25.1 24.2 75.6 13 -5.3 22.4
18:40 1020 30.12 850 25.1 24.1 75.3 17 -2.1 28.2
18:45 1020 30.12 850 25.1 24.1 75.3 14 -5.3 22.5
18:50 1020 30.12 850 25.1 23.9 75.1 14 -5.4 22.2
18:55 1020 30.12 850 25.1 23.8 74.8 13 -6.3 20.6
19:00 1020 30.12 850 25.1 23.6 74.5 14 -4.8 23.3
19:05 1020 30.12 850 25.1 23.3 73.9 16 -3.5 25.7
19:10 1020 30.12 850 25.1 22.8 73 21 -0.5 31.1
19:15 1020 30.12 850 25.1 22.2 71.9 22 -0.3 31.4
19:20 1021 30.15 850 25.1 21.6 70.8 25 1.1 34
19:25 1021 30.15 850 25.1 21 69.8 25 0.3 32.5
19:30 1021 30.15 850 25.1 20.4 68.7 25 -0.2 31.7
19:35 1021 30.15 850 25.1 20.1 68.2 24 -0.9 30.4
19:40 1021 30.15 850 25.1 19.8 67.6 27 0.6 33
19:45 1021 30.15 850 25.1 19.5 67.2 29 1 33.7
19:50 1021 30.15 850 25.1 19.2 66.6 29 0.7 33.3
19:55 1021 30.15 850 25.1 18.8 65.9 29 0.6 33
20:00 1021 30.15 850 25.1 18.4 65.1 28 -0.2 31.7
20:05 1021 30.15 850 25.1 18 64.4 29 -0.2 31.7
20:10 1021 30.15 850 25.1 18.1 64.6 29 -0 32
20:15 1021 30.15 850 25.1 18 64.4 32 1 33.9
20:20 1021 30.15 850 25.1 17.2 63 32 0.6 33.2
20:25 1021 30.15 850 25.1 16.9 62.4 32 0.4 32.7
20:30 1021 30.15 850 25.1 16.7 62.1 32 -0 31.9
20:35 1021 30.15 850 25.1 16.7 62 32 -0 32
20:40 1021 30.15 850 25.1 16.5 61.7 32 -0.1 31.8
20:45 1021 30.15 850 25.1 16.4 61.5 31 -0.8 30.6
20:50 1021 30.15 850 25.1 16.4 61.6 30 -1 30.1
20:55 1021 30.15 850 25.1 16.5 61.7 30 -1.1 30
21:00 1021 30.15 850 25.1 16.5 61.7 28 -1.9 28.5
21:05 1021 30.15 851 25.13 16.8 62.2 26 -2.8 27
21:10 1021 30.15 851 25.13 17.1 62.8 30 -0.6 30.8
21:15 1022 30.18 851 25.13 16.9 62.3 31 -0.1 31.8
21:20 1022 30.18 851 25.13 16.6 61.9 31 -0.4 31.2
21:25 1022 30.18 851 25.13 16.6 61.9 29 -1.5 29.3
21:30 1022 30.18 851 25.13 16.9 62.5 30 -0.5 31.2
21:35 1022 30.18 851 25.13 17.3 63.1 28 -1.3 29.7
21:40 1022 30.18 851 25.13 17 62.5 33 0.5 33
21:45 1022 30.18 851 25.13 16.6 61.9 30 -0.8 30.5
21:50 1022 30.18 851 25.13 16.6 61.8 29 -1.3 29.7
21:55 1022 30.18 851 25.13 16.4 61.4 30 -1 30.2
22:00 1022 30.18 851 25.13 16.1 60.9 33 -0.2 31.6
22:05 1022 30.18 851 25.13 15.5 59.9 35 0.3 32.5
22:10 1022 30.18 851 25.13 15.3 59.6 33 -0.7 30.7
22:15 1022 30.18 851 25.13 15.3 59.5 32 -1.2 29.9
22:20 1022 30.18 851 25.13 15.2 59.4 32 -1.1 30.1
22:25 1022 30.18 851 25.13 15.2 59.3 33 -0.9 30.4
22:30 1022 30.18 851 25.13 15.3 59.5 32 -1.1 30
22:35 1022 30.18 851 25.13 15.1 59.2 32 -1.2 29.9
22:40 1022 30.18 851 25.13 14.9 58.8 32 -1.5 29.2
22:45 1022 30.18 851 25.13 14.8 58.6 32 -1.6 29.1
22:50 1022 30.18 851 25.13 14.5 58.2 33 -1.4 29.5
22:55 1022 30.18 851 25.13 14.4 57.9 33 -1.5 29.3
23:00 1022 30.18 851 25.13 14.2 57.5 33 -1.8 28.7
23:05 1022 30.18 851 25.13 14.3 57.7 32 -2 28.3
23:10 1022 30.18 851 25.13 14.3 57.8 33 -1.8 28.8
23:15 1022 30.18 851 25.13 14.1 57.4 33 -1.7 28.9
23:20 1022 30.18 851 25.13 13.9 57.1 33 -1.9 28.6
23:25 1022 30.18 851 25.13 14 57.1 32 -2.3 27.8
23:30 1022 30.18 851 25.13 14.1 57.5 33 -1.9 28.5
23:35 1022 30.18 851 25.13 14.1 57.3 33 -2 28.4
23:40 1022 30.18 851 25.13 13.9 57 33 -2 28.4
23:45 1022 30.18 851 25.13 13.8 56.9 34 -1.8 28.8
23:50 1022 30.18 851 25.13 13.6 56.5 34 -1.9 28.6
23:55 1022 30.18 851 25.13 13.7 56.7 33 -2.4 27.7
24:00 1022 30.18 851 25.13 13.7 56.6 34 -2 28.4